Time;durP1;ratioP1;P1;durP2;ratioP2;P2;SDS_P1;SDS_P2;PMS_P1;PMS_P2;Temp;Humidity;BMP_temperature;BMP_pressure;BME280_temperature;BME280_humidity;BME280_pressure;Samples;Min_cycle;Max_cycle;Signal;HPM_P1;HPM_P2
2022/06/11 00:01:48;;;;;;;9.35;6.28;;;15.40;96.30;;;;;;5073700;28;20223;-27
2022/06/11 00:04:26;;;;;;;10.15;6.22;;;15.30;99.90;;;;;;5073648;28;20049;-27
2022/06/11 00:06:57;;;;;;;12.75;7.53;;;15.30;99.90;;;;;;5074066;28;20044;-28
2022/06/11 00:09:24;;;;;;;16.67;7.03;;;15.20;99.90;;;;;;5073944;28;20087;-27
2022/06/11 00:11:51;;;;;;;12.63;6.55;;;15.10;99.90;;;;;;5073539;28;20080;-28
2022/06/11 00:14:22;;;;;;;11.30;6.00;;;15.10;99.90;;;;;;5074118;28;20044;-28
2022/06/11 00:16:49;;;;;;;10.98;5.65;;;15.00;99.90;;;;;;5074388;28;20044;-27
2022/06/11 00:19:15;;;;;;;14.10;4.90;;;14.90;99.90;;;;;;5072059;28;20418;-27
2022/06/11 00:21:43;;;;;;;8.68;4.60;;;15.00;99.90;;;;;;5072506;28;20070;-27
2022/06/11 00:24:09;;;;;;;12.10;4.75;;;14.90;99.90;;;;;;5073457;28;20098;-27
2022/06/11 00:26:36;;;;;;;11.15;3.63;;;14.90;99.90;;;;;;5073421;28;20410;-27
2022/06/11 00:29:06;;;;;;;7.28;3.10;;;14.80;99.90;;;;;;5074169;28;20076;-27
2022/06/11 00:31:33;;;;;;;10.60;4.40;;;14.90;99.90;;;;;;5056076;28;20054;-29
2022/06/11 00:33:59;;;;;;;9.15;3.10;;;14.90;99.90;;;;;;5073979;28;20041;-27
2022/06/11 00:36:25;;;;;;;6.32;2.67;;;14.90;63.70;;;;;;5073329;28;20505;-27
2022/06/11 00:38:51;;;;;;;8.98;2.85;;;14.90;15.30;;;;;;5073196;28;20531;-27
2022/06/11 00:41:21;;;;;;;8.85;2.90;;;15.00;1.00;;;;;;5073258;28;20045;-27
2022/06/11 00:43:46;;;;;;;15.32;3.58;;;14.90;1.00;;;;;;5072123;28;20048;-27
2022/06/11 00:46:36;;;;;;;9.52;2.80;;;14.90;1.00;;;;;;5073076;28;20162;-27
2022/06/11 00:49:11;;;;;;;9.88;3.15;;;14.80;1.00;;;;;;5073214;28;20078;-28
2022/06/11 00:51:37;;;;;;;10.18;3.28;;;14.70;1.00;;;;;;5073090;28;20068;-27
2022/06/11 00:54:08;;;;;;;11.70;3.53;;;14.60;1.00;;;;;;5073140;28;20052;-27
2022/06/11 00:56:49;;;;;;;9.07;3.20;;;14.50;1.00;;;;;;5073756;28;20048;-27
2022/06/11 00:59:21;;;;;;;11.05;4.40;;;14.40;1.00;;;;;;5072747;28;20043;-27
2022/06/11 01:01:47;;;;;;;11.45;4.75;;;14.30;1.00;;;;;;5076232;28;20040;-27
2022/06/11 01:04:34;;;;;;;12.73;3.45;;;14.20;1.00;;;;;;5076120;28;20051;-27
2022/06/11 01:07:18;;;;;;;10.50;3.50;;;14.10;1.00;;;;;;5076423;28;20384;-27
2022/06/11 01:10:09;;;;;;;9.43;3.17;;;14.00;1.00;;;;;;5077002;28;20052;-27
2022/06/11 01:12:58;;;;;;;13.70;4.30;;;13.90;12.40;;;;;;5077544;28;20047;-27
2022/06/11 01:15:45;;;;;;;12.85;3.83;;;13.80;33.90;;;;;;5066248;28;20052;-27
2022/06/11 01:18:20;;;;;;;7.47;2.90;;;13.80;88.20;;;;;;5076300;28;20064;-27
2022/06/11 01:21:14;;;;;;;10.48;2.45;;;13.80;84.70;;;;;;5076501;28;20053;-27
2022/06/11 01:24:01;;;;;;;11.77;2.83;;;13.80;89.20;;;;;;5075468;28;20044;-27
2022/06/11 01:27:09;;;;;;;14.77;3.70;;;13.80;43.30;;;;;;5076433;28;20053;-27
2022/06/11 01:30:04;;;;;;;13.48;2.70;;;13.80;1.00;;;;;;5076709;28;20123;-27
2022/06/11 01:32:47;;;;;;;12.07;3.60;;;13.90;1.00;;;;;;5074428;28;20048;-28
2022/06/11 01:35:23;;;;;;;9.45;2.40;;;13.90;1.00;;;;;;5077137;28;20055;-27
2022/06/11 01:37:55;;;;;;;8.95;2.78;;;13.90;1.00;;;;;;5075504;28;20139;-27
2022/06/11 01:40:39;;;;;;;9.15;2.38;;;13.90;1.00;;;;;;5075150;28;20486;-27
2022/06/11 01:43:17;;;;;;;10.93;2.53;;;13.80;1.00;;;;;;5075461;28;20052;-26
2022/06/11 01:45:43;;;;;;;11.90;2.28;;;13.70;1.00;;;;;;5075550;28;20135;-27
2022/06/11 01:48:18;;;;;;;14.35;2.67;;;13.70;1.00;;;;;;5075740;28;20490;-27
2022/06/11 01:51:03;;;;;;;11.07;2.88;;;13.60;1.00;;;;;;5076038;28;20084;-27
2022/06/11 01:53:59;;;;;;;11.18;2.65;;;13.50;1.00;;;;;;5075954;28;20052;-27
2022/06/11 01:56:53;;;;;;;11.60;2.42;;;13.40;1.00;;;;;;5075901;28;20059;-27
2022/06/11 01:59:30;;;;;;;14.02;2.95;;;13.40;1.00;;;;;;5076341;28;20055;-26
2022/06/11 02:02:22;;;;;;;12.75;2.58;;;13.30;1.00;;;;;;5076358;28;20084;-27
2022/06/11 02:04:59;;;;;;;8.32;2.45;;;13.20;1.00;;;;;;5075114;28;20080;-27
2022/06/11 02:07:30;;;;;;;13.30;4.65;;;13.10;1.00;;;;;;5076273;28;20048;-26
2022/06/11 02:10:15;;;;;;;10.93;2.40;;;13.00;1.00;;;;;;5075583;28;20379;-27
2022/06/11 02:12:47;;;;;;;14.98;3.50;;;12.90;1.00;;;;;;5075473;28;20040;-27
2022/06/11 02:15:20;;;;;;;9.98;2.67;;;12.90;1.00;;;;;;5075512;28;20051;-26
2022/06/11 02:17:50;;;;;;;11.07;2.33;;;13.00;1.00;;;;;;5074698;28;20045;-28
2022/06/11 02:20:23;;;;;;;9.63;2.38;;;13.10;22.30;;;;;;5074258;28;20106;-26
2022/06/11 02:23:08;;;;;;;14.00;2.47;;;13.30;33.20;;;;;;5075678;28;20076;-26
2022/06/11 02:25:58;;;;;;;10.82;2.70;;;13.30;1.00;;;;;;5075343;28;20041;-26
2022/06/11 02:28:28;;;;;;;8.60;2.67;;;13.30;1.00;;;;;;5075219;28;20058;-26
2022/06/11 02:30:59;;;;;;;14.73;3.63;;;13.30;1.00;;;;;;5076062;28;20044;-26
2022/06/11 02:33:24;;;;;;;9.23;3.03;;;13.40;1.00;;;;;;5074206;28;20049;-27
2022/06/11 02:35:50;;;;;;;9.48;2.33;;;13.30;1.00;;;;;;5075130;28;20093;-26
2022/06/11 02:38:19;;;;;;;12.82;4.13;;;13.40;1.00;;;;;;5058122;28;20524;-26
2022/06/11 02:40:54;;;;;;;14.50;2.58;;;13.40;1.00;;;;;;5074943;28;20134;-26
2022/06/11 02:43:21;;;;;;;13.15;2.78;;;13.40;1.00;;;;;;5075594;28;20063;-27
2022/06/11 02:45:47;;;;;;;10.90;3.38;;;13.30;1.00;;;;;;5075153;28;20052;-27
2022/06/11 02:48:14;;;;;;;13.40;2.90;;;13.30;1.00;;;;;;5075659;28;20383;-27
2022/06/11 02:50:40;;;;;;;12.18;3.05;;;13.30;56.30;;;;;;5074779;28;20045;-27
2022/06/11 02:53:07;;;;;;;14.52;3.10;;;13.40;76.70;;;;;;5073788;28;20131;-27
2022/06/11 02:55:34;;;;;;;14.93;2.58;;;13.40;66.20;;;;;;5073516;28;20053;-26
2022/06/11 02:57:59;;;;;;;17.77;3.72;;;13.40;13.80;;;;;;5074565;28;20123;-26
2022/06/11 03:00:32;;;;;;;13.20;3.47;;;13.40;12.60;;;;;;5075134;28;20132;-27
2022/06/11 03:02:58;;;;;;;13.02;2.65;;;13.40;1.00;;;;;;5075160;28;20040;-26
2022/06/11 03:05:28;;;;;;;15.02;3.28;;;13.40;1.00;;;;;;5074536;28;20048;-26
2022/06/11 03:07:55;;;;;;;15.50;3.15;;;13.30;1.00;;;;;;5074365;28;20055;-26
2022/06/11 03:10:23;;;;;;;12.02;3.38;;;13.30;1.00;;;;;;5074421;28;20048;-27
2022/06/11 03:12:49;;;;;;;23.45;3.78;;;13.10;1.00;;;;;;5074389;28;20071;-27
2022/06/11 03:15:16;;;;;;;15.45;3.30;;;13.00;1.00;;;;;;5074379;28;20055;-26
2022/06/11 03:17:43;;;;;;;14.70;3.35;;;12.90;1.00;;;;;;5074840;28;20086;-27
2022/06/11 03:20:10;;;;;;;15.48;3.67;;;12.80;1.00;;;;;;5074327;28;20080;-26
2022/06/11 03:22:36;;;;;;;17.88;3.85;;;12.80;1.00;;;;;;5073077;28;20053;-26
2022/06/11 03:25:03;;;;;;;12.88;2.80;;;12.70;22.70;;;;;;5074168;28;20056;-26
2022/06/11 03:27:29;;;;;;;13.23;2.53;;;12.60;56.90;;;;;;5073988;28;20044;-27
2022/06/11 03:29:55;;;;;;;13.45;2.95;;;12.50;99.90;;;;;;5074068;28;20048;-27
2022/06/11 03:32:20;;;;;;;19.38;3.53;;;12.50;99.90;;;;;;5073101;28;20070;-26
2022/06/11 03:34:47;;;;;;;11.50;4.40;;;12.40;99.90;;;;;;5074116;28;20375;-27
2022/06/11 03:37:13;;;;;;;15.05;3.75;;;12.50;99.90;;;;;;5073958;28;20044;-27
2022/06/11 03:39:40;;;;;;;11.52;3.17;;;12.60;99.90;;;;;;5074424;28;20040;-26
2022/06/11 03:42:06;;;;;;;13.23;3.15;;;12.60;99.90;;;;;;5072580;28;20044;-26
2022/06/11 03:44:32;;;;;;;16.05;3.65;;;12.70;99.90;;;;;;5073871;28;20090;-26
2022/06/11 03:46:58;;;;;;;13.25;3.00;;;12.70;99.90;;;;;;5072641;28;20063;-27
2022/06/11 03:49:24;;;;;;;13.35;3.65;;;12.80;99.90;;;;;;5073830;28;20040;-27
2022/06/11 03:51:51;;;;;;;13.18;2.90;;;12.80;99.90;;;;;;5073797;28;20048;-26
2022/06/11 03:54:17;;;;;;;15.57;4.13;;;12.80;99.90;;;;;;5073785;28;20055;-26
2022/06/11 03:56:45;;;;;;;11.68;2.95;;;12.80;99.90;;;;;;5073457;28;20045;-26
2022/06/11 03:59:11;;;;;;;15.07;3.55;;;12.80;99.90;;;;;;5073932;28;20394;-26
2022/06/11 04:01:39;;;;;;;14.77;3.63;;;12.80;99.90;;;;;;5073731;28;20044;-26
2022/06/11 04:04:08;;;;;;;13.35;3.05;;;12.80;99.90;;;;;;5073922;28;20151;-26
2022/06/11 04:06:49;;;;;;;15.00;3.42;;;12.80;99.90;;;;;;5073651;28;20044;-26
2022/06/11 04:09:40;;;;;;;17.50;4.60;;;12.80;99.90;;;;;;5073547;28;20048;-26
2022/06/11 04:12:12;;;;;;;14.52;4.38;;;12.70;99.90;;;;;;5073897;28;20121;-26
2022/06/11 04:14:38;;;;;;;18.52;3.53;;;12.80;99.90;;;;;;5073289;28;20498;-26
2022/06/11 04:17:13;;;;;;;10.95;4.00;;;12.90;1.00;;;;;;5073542;28;20131;-26
2022/06/11 04:19:41;;;;;;;14.27;4.57;;;12.90;1.00;;;;;;5072554;28;20064;-26
2022/06/11 04:22:08;;;;;;;14.60;3.85;;;13.00;1.00;;;;;;5074268;28;20036;-26
2022/06/11 04:24:34;;;;;;;20.30;5.05;;;13.10;1.00;;;;;;5073435;28;20055;-26
2022/06/11 04:27:04;;;;;;;18.30;3.95;;;13.20;1.00;;;;;;5073475;28;20048;-26
2022/06/11 04:29:33;;;;;;;12.93;3.70;;;13.30;1.00;;;;;;5073365;28;20491;-26
2022/06/11 04:32:02;;;;;;;11.15;3.75;;;13.40;1.00;;;;;;5073674;28;20399;-26
2022/06/11 04:34:30;;;;;;;13.32;4.40;;;13.50;1.00;;;;;;5075742;28;20521;-26
2022/06/11 04:36:57;;;;;;;13.73;4.55;;;13.60;1.00;;;;;;5076207;28;20055;-26
2022/06/11 04:39:25;;;;;;;15.82;5.28;;;13.70;1.00;;;;;;5077782;28;20379;-27
2022/06/11 04:41:51;;;;;;;16.65;4.32;;;13.80;1.00;;;;;;5076222;28;20045;-26
2022/06/11 04:44:17;;;;;;;12.25;3.53;;;13.90;1.00;;;;;;5060379;28;20045;-26
2022/06/11 04:46:43;;;;;;;15.93;3.65;;;13.90;1.00;;;;;;5076165;28;20113;-27
2022/06/11 04:49:09;;;;;;;19.63;5.07;;;14.00;99.90;;;;;;5077189;28;20051;-26
2022/06/11 04:51:35;;;;;;;21.95;4.82;;;14.10;99.90;;;;;;5077053;28;20054;-26
2022/06/11 04:54:01;;;;;;;11.32;3.20;;;14.20;99.90;;;;;;5059668;28;20123;-26
2022/06/11 04:56:28;;;;;;;12.23;4.30;;;14.20;99.90;;;;;;5075991;28;20408;-26
2022/06/11 04:58:54;;;;;;;12.57;4.03;;;14.30;99.90;;;;;;5076865;28;20048;-26
2022/06/11 05:01:21;;;;;;;16.38;4.28;;;14.50;99.90;;;;;;5077226;28;20078;-27
2022/06/11 05:03:47;;;;;;;11.88;4.13;;;14.90;99.90;;;;;;5076139;28;20048;-26
2022/06/11 05:06:20;;;;;;;22.70;5.43;;;15.50;99.90;;;;;;5059090;28;20071;-27
2022/06/11 05:08:46;;;;;;;23.75;3.92;;;16.00;1.00;;;;;;5059049;28;20109;-27
2022/06/11 05:11:12;;;;;;;20.13;3.75;;;16.10;99.90;;;;;;5059446;28;20052;-27
2022/06/11 05:13:39;;;;;;;26.63;4.55;;;16.00;99.90;;;;;;5059903;28;20474;-26
2022/06/11 05:16:05;;;;;;;15.65;3.97;;;16.20;99.90;;;;;;5075622;28;20094;-26
2022/06/11 05:18:31;;;;;;;13.38;4.05;;;16.40;99.90;;;;;;5075284;28;20552;-27
2022/06/11 05:20:57;;;;;;;18.05;4.25;;;16.60;28.70;;;;;;5076610;28;20555;-26
2022/06/11 05:23:23;;;;;;;17.45;4.70;;;16.50;1.00;;;;;;5075278;28;20052;-26
2022/06/11 05:25:50;;;;;;;18.02;4.47;;;16.50;1.00;;;;;;5076117;28;20040;-26
2022/06/11 05:28:23;;;;;;;21.65;5.13;;;16.40;1.00;;;;;;5075153;28;20055;-26
2022/06/11 05:30:49;;;;;;;;;;;16.50;1.00;;;;;;5076749;28;20041;-26
2022/06/11 05:33:15;;;;;;;26.30;4.35;;;16.40;99.90;;;;;;5059480;28;19931;-26
2022/06/11 05:35:42;;;;;;;22.95;4.50;;;16.60;1.00;;;;;;5076135;28;20084;-26
2022/06/11 05:38:12;;;;;;;19.35;4.35;;;16.80;1.00;;;;;;5076142;28;20076;-26
2022/06/11 05:40:42;;;;;;;25.95;5.30;;;17.10;99.90;;;;;;5076126;28;20045;-26
2022/06/11 05:43:09;;;;;;;23.83;5.57;;;17.20;99.90;;;;;;5076223;28;20135;-26
2022/06/11 05:45:41;;;;;;;34.15;7.60;;;17.30;99.90;;;;;;5074325;28;20057;-26
2022/06/11 05:48:09;;;;;;;28.10;5.35;;;17.20;99.90;;;;;;5075400;28;20052;-26
2022/06/11 05:50:38;;;;;;;23.42;5.55;;;17.30;99.90;;;;;;5074828;28;20056;-26
2022/06/11 05:53:06;;;;;;;29.70;5.32;;;17.40;99.90;;;;;;5058287;28;20048;-26
2022/06/11 05:55:34;;;;;;;23.83;4.60;;;17.50;99.90;;;;;;5075316;28;20398;-27
2022/06/11 05:58:03;;;;;;;22.30;5.70;;;17.50;99.90;;;;;;5074829;28;20048;-26
2022/06/11 06:00:29;;;;;;;27.45;6.10;;;17.60;99.90;;;;;;5075934;28;20094;-26
2022/06/11 06:02:56;;;;;;;23.08;5.45;;;17.60;99.90;;;;;;5074572;28;20062;-26
2022/06/11 06:05:26;;;;;;;26.98;6.53;;;17.80;99.90;;;;;;5076251;28;20044;-26
2022/06/11 06:07:53;;;;;;;25.88;5.97;;;17.90;99.90;;;;;;5074331;28;20051;-26
2022/06/11 06:10:19;;;;;;;19.13;5.72;;;18.00;94.30;;;;;;5074643;28;20071;-26
2022/06/11 06:12:45;;;;;;;20.13;5.13;;;17.90;99.90;;;;;;5075582;28;20044;-27
2022/06/11 06:15:17;;;;;;;20.50;4.90;;;18.00;93.60;;;;;;5075556;28;20047;-27
2022/06/11 06:17:43;;;;;;;32.25;6.07;;;18.20;94.60;;;;;;5075562;28;20102;-26
2022/06/11 06:20:13;;;;;;;22.10;4.72;;;18.50;52.20;;;;;;5073883;28;20060;-26
2022/06/11 06:22:39;;;;;;;24.38;5.35;;;18.60;1.00;;;;;;5075446;28;20037;-26
2022/06/11 06:25:05;;;;;;;25.80;7.15;;;18.70;5.80;;;;;;5075297;28;20123;-26
2022/06/11 06:27:31;;;;;;;28.23;7.03;;;18.40;22.00;;;;;;5075259;28;20127;-26
2022/06/11 06:29:59;;;;;;;23.48;5.75;;;18.50;80.10;;;;;;5074935;28;20082;-26
2022/06/11 06:32:25;;;;;;;28.40;5.57;;;18.50;1.00;;;;;;5074570;28;20059;-26
2022/06/11 06:34:51;;;;;;;28.23;6.18;;;18.50;14.00;;;;;;5057310;28;20078;-26
2022/06/11 06:37:17;;;;;;;25.15;6.32;;;18.60;21.80;;;;;;5075935;28;20123;-26
2022/06/11 06:39:43;;;;;;;26.65;6.22;;;18.50;3.00;;;;;;5075765;28;20362;-26
2022/06/11 06:42:09;;;;;;;24.38;5.60;;;18.60;62.00;;;;;;5073849;28;20050;-26
2022/06/11 06:44:35;;;;;;;30.15;6.50;;;18.80;53.10;;;;;;5074675;28;20494;-26
2022/06/11 06:47:00;;;;;;;24.35;4.95;;;19.10;6.20;;;;;;5074881;28;20044;-26
2022/06/11 06:49:26;;;;;;;30.30;7.28;;;19.30;1.00;;;;;;5073332;28;20093;-26
2022/06/11 06:51:52;;;;;;;29.55;6.68;;;19.10;1.00;;;;;;5075304;28;20044;-26
2022/06/11 06:54:18;;;;;;;30.60;6.20;;;19.30;1.00;;;;;;5056709;28;20113;-27
2022/06/11 06:56:44;;;;;;;25.75;5.90;;;19.30;1.00;;;;;;5073894;28;20127;-26
2022/06/11 06:59:11;;;;;;;22.88;5.82;;;19.30;1.00;;;;;;5072902;28;20044;-26
2022/06/11 07:01:37;;;;;;;18.45;4.55;;;19.10;1.00;;;;;;5074520;28;20041;-26
2022/06/11 07:04:03;;;;;;;32.83;6.05;;;18.90;1.00;;;;;;5073432;28;20110;-26
2022/06/11 07:06:31;;;;;;;28.92;5.68;;;18.70;1.00;;;;;;5075063;28;20467;-26
2022/06/11 07:08:57;;;;;;;27.20;5.63;;;18.80;1.00;;;;;;5074526;28;20041;-26
2022/06/11 07:11:22;;;;;;;25.08;6.10;;;19.10;1.00;;;;;;5074453;28;20444;-26
2022/06/11 07:13:48;;;;;;;29.55;6.47;;;18.70;1.00;;;;;;5057625;28;20044;-26
2022/06/11 07:16:17;;;;;;;26.42;7.00;;;18.50;1.00;;;;;;5073323;28;20132;-25
2022/06/11 07:18:48;;;;;;;24.48;5.97;;;18.60;1.00;;;;;;5074467;28;20146;-26
2022/06/11 07:21:19;;;;;;;26.55;5.63;;;18.80;1.00;;;;;;5074867;28;20418;-25
2022/06/11 07:23:49;;;;;;;20.15;4.00;;;19.00;1.00;;;;;;5057128;28;20111;-25
2022/06/11 07:26:19;;;;;;;23.45;5.35;;;19.30;1.00;;;;;;5074115;28;20054;-26
2022/06/11 07:28:53;;;;;;;22.00;5.07;;;19.50;99.90;;;;;;5074110;28;20502;-26
2022/06/11 07:31:19;;;;;;;21.15;5.07;;;19.40;99.90;;;;;;5073927;28;20048;-25
2022/06/11 07:33:49;;;;;;;22.60;4.03;;;19.50;1.00;;;;;;5074579;28;20106;-25
2022/06/11 07:36:16;;;;;;;21.08;5.43;;;19.50;1.00;;;;;;5057337;28;20458;-25
2022/06/11 07:38:42;;;;;;;20.83;4.80;;;19.50;99.90;;;;;;5073929;28;20123;-26
2022/06/11 07:41:07;;;;;;;23.27;5.00;;;19.80;1.00;;;;;;5074005;28;20084;-26
2022/06/11 07:43:35;;;;;;;18.13;4.18;;;20.00;99.90;;;;;;5073917;28;20569;-26
2022/06/11 07:46:03;;;;;;;19.23;3.88;;;20.10;99.90;;;;;;5073847;28;20474;-26
2022/06/11 07:48:29;;;;;;;23.63;4.80;;;20.00;99.90;;;;;;5072575;28;20083;-26
2022/06/11 07:50:55;;;;;;;24.80;4.82;;;19.90;99.90;;;;;;5056579;28;20088;-26
2022/06/11 07:53:22;;;;;;;19.75;4.32;;;19.80;99.90;;;;;;5073783;28;20098;-25
2022/06/11 07:55:52;;;;;;;22.00;5.22;;;20.00;99.90;;;;;;5074273;28;20048;-26
2022/06/11 07:58:21;;;;;;;21.83;5.55;;;20.00;99.90;;;;;;5074226;28;20127;-25
2022/06/11 08:00:50;;;;;;;20.77;5.10;;;20.10;99.90;;;;;;5073658;28;20131;-26
2022/06/11 08:03:16;;;;;;;27.10;6.07;;;19.90;99.90;;;;;;5072945;28;20040;-25
2022/06/11 08:05:43;;;;;;;23.23;5.05;;;19.50;99.90;;;;;;5073193;28;20056;-26
2022/06/11 08:08:09;;;;;;;14.95;3.83;;;19.70;99.90;;;;;;5073636;28;20044;-26
2022/06/11 08:10:37;;;;;;;21.17;4.07;;;20.00;99.90;;;;;;5072391;28;20410;-26
2022/06/11 08:13:03;;;;;;;18.05;3.92;;;19.60;99.90;;;;;;5073598;28;20371;-25
2022/06/11 08:15:30;;;;;;;19.40;4.63;;;19.70;99.90;;;;;;5073548;28;20141;-25
2022/06/11 08:17:56;;;;;;;18.77;4.50;;;20.00;99.90;;;;;;5055631;28;20051;-26
2022/06/11 08:20:25;;;;;;;20.65;4.18;;;20.00;99.90;;;;;;5072965;28;20057;-25
2022/06/11 08:22:53;;;;;;;20.90;4.53;;;19.60;99.90;;;;;;5073467;28;20051;-25
2022/06/11 08:25:24;;;;;;;25.55;4.80;;;19.10;99.90;;;;;;5073474;28;20044;-25
2022/06/11 08:27:51;;;;;;;21.92;4.25;;;18.70;99.90;;;;;;5072359;28;20133;-25
2022/06/11 08:30:20;;;;;;;23.63;4.82;;;18.80;99.90;;;;;;5072535;28;20071;-25
2022/06/11 08:32:46;;;;;;;20.02;4.18;;;19.40;1.00;;;;;;5073402;28;20040;-25
2022/06/11 08:35:15;;;;;;;17.40;3.67;;;19.60;99.90;;;;;;5072418;28;20044;-25
2022/06/11 08:37:41;;;;;;;20.48;5.53;;;19.60;99.90;;;;;;5055926;28;20044;-25
2022/06/11 08:40:18;;;;;;;22.30;5.97;;;19.90;99.90;;;;;;5055333;28;20058;-25
2022/06/11 08:42:51;;;;;;;21.85;4.10;;;20.30;99.90;;;;;;5073377;28;20051;-25
2022/06/11 08:45:20;;;;;;;21.92;5.80;;;20.50;99.90;;;;;;5073963;28;20105;-25
2022/06/11 08:47:54;;;;;;;17.23;3.67;;;20.70;99.90;;;;;;5073227;28;20095;-25
2022/06/11 08:50:39;;;;;;;20.38;4.63;;;21.00;99.90;;;;;;5072309;28;20494;-25
2022/06/11 08:53:08;;;;;;;18.90;3.97;;;21.40;70.20;;;;;;5073577;28;20490;-26
2022/06/11 08:55:38;;;;;;;16.80;3.90;;;21.60;1.00;;;;;;5073445;28;20051;-25
2022/06/11 08:58:40;;;;;;;21.02;4.20;;;21.70;1.00;;;;;;5072050;28;20041;-25
2022/06/11 09:01:24;;;;;;;16.10;3.63;;;21.80;1.00;;;;;;5065923;28;20119;-26
2022/06/11 09:04:28;;;;;;;14.82;3.60;;;21.60;1.00;;;;;;5071467;28;20044;-25
2022/06/11 09:07:05;;;;;;;18.95;4.13;;;21.20;1.00;;;;;;5073364;28;20052;-25
2022/06/11 09:09:53;;;;;;;22.00;5.03;;;21.00;1.00;;;;;;5072829;28;20478;-25
2022/06/11 09:12:33;;;;;;;17.27;4.20;;;21.10;1.00;;;;;;5062521;28;20420;-25
2022/06/11 09:15:11;;;;;;;36.08;5.78;;;21.40;1.00;;;;;;5073569;28;20390;-25
2022/06/11 09:18:03;;;;;;;13.30;3.25;;;21.50;49.60;;;;;;5071775;28;20201;-25
2022/06/11 09:21:10;;;;;;;16.27;3.55;;;21.30;1.00;;;;;;5058676;28;20065;-25
2022/06/11 09:23:56;;;;;;;16.27;3.30;;;20.90;1.00;;;;;;5077378;28;20095;-26
2022/06/11 09:26:50;;;;;;;13.70;3.67;;;21.10;1.00;;;;;;5061185;28;20060;-26
2022/06/11 09:29:36;;;;;;;12.45;3.17;;;21.30;99.90;;;;;;5057516;28;20052;-25
2022/06/11 09:32:08;;;;;;;12.63;3.17;;;21.30;1.00;;;;;;5058724;28;20124;-25
2022/06/11 09:34:44;;;;;;;18.00;3.53;;;21.30;99.90;;;;;;5064180;28;20360;-25
2022/06/11 09:37:17;;;;;;;20.40;3.72;;;21.50;99.90;;;;;;5069603;28;20087;-25
2022/06/11 09:40:15;;;;;;;16.63;3.35;;;21.40;99.90;;;;;;5076235;28;20045;-25
2022/06/11 09:42:59;;;;;;;17.58;4.03;;;21.40;99.90;;;;;;5058949;28;20135;-25
2022/06/11 09:45:36;;;;;;;14.95;3.92;;;21.50;99.90;;;;;;5076037;28;20048;-25
2022/06/11 09:48:20;;;;;;;14.63;2.88;;;21.60;99.90;;;;;;5065925;28;20052;-25
2022/06/11 09:50:54;;;;;;;12.70;2.53;;;21.20;99.90;;;;;;5076634;28;20422;-26
2022/06/11 09:53:28;;;;;;;17.20;3.97;;;21.30;99.90;;;;;;5076837;28;20052;-25
2022/06/11 09:56:29;;;;;;;11.98;2.67;;;21.50;99.90;;;;;;5069550;28;20061;-25
2022/06/11 09:59:19;;;;;;;12.75;3.08;;;21.60;99.90;;;;;;5054784;28;20060;-25
2022/06/11 10:02:16;;;;;;;10.25;2.15;;;21.60;99.90;;;;;;5071365;28;20050;-25
2022/06/11 10:04:46;;;;;;;15.93;3.65;;;21.50;99.90;;;;;;5075150;28;20131;-25
2022/06/11 10:07:20;;;;;;;14.15;3.15;;;21.50;99.90;;;;;;5075335;28;20569;-25
2022/06/11 10:10:05;;;;;;;11.85;2.90;;;21.50;99.90;;;;;;5074995;28;20466;-25
2022/06/11 10:12:36;;;;;;;13.52;2.92;;;21.40;99.90;;;;;;5063360;28;20072;-25
2022/06/11 10:15:13;;;;;;;17.92;2.97;;;21.20;99.90;;;;;;5060977;28;20546;-25
2022/06/11 10:18:29;;;;;;;9.98;2.55;;;21.60;99.90;;;;;;5074741;28;20063;-25
2022/06/11 10:21:06;;;;;;;11.57;2.78;;;21.60;99.90;;;;;;5061342;28;20071;-25
2022/06/11 10:23:53;;;;;;;12.32;2.80;;;21.90;99.90;;;;;;5072203;28;20555;-25
2022/06/11 10:26:51;;;;;;;13.82;3.28;;;21.90;99.90;;;;;;5072706;28;20049;-25
2022/06/11 10:29:28;;;;;;;13.77;3.00;;;22.00;32.00;;;;;;5062659;28;20053;-25
2022/06/11 10:31:56;;;;;;;10.18;2.53;;;21.60;99.90;;;;;;5067793;28;20075;-25
2022/06/11 10:34:24;;;;;;;11.50;2.58;;;21.80;99.90;;;;;;5066312;28;20037;-25
2022/06/11 10:37:08;;;;;;;11.25;3.05;;;22.00;1.00;;;;;;5075939;28;20044;-25
2022/06/11 10:39:34;;;;;;;13.68;2.85;;;22.00;1.00;;;;;;5074686;28;20083;-25
2022/06/11 10:42:10;;;;;;;10.85;2.45;;;22.20;1.00;;;;;;5075608;28;20080;-25
2022/06/11 10:44:39;;;;;;;11.88;2.67;;;21.80;1.00;;;;;;5063354;28;20076;-25
2022/06/11 10:47:28;;;;;;;14.00;3.20;;;21.90;1.00;;;;;;5055501;28;20055;-25
2022/06/11 10:50:07;;;;;;;14.68;2.97;;;21.70;1.00;;;;;;5054924;28;20487;-24
2022/06/11 10:52:55;;;;;;;13.98;3.40;;;21.70;32.30;;;;;;5055694;28;20063;-24
2022/06/11 10:55:41;;;;;;;11.55;2.47;;;22.00;99.90;;;;;;5065126;28;20387;-25
2022/06/11 10:58:20;;;;;;;10.52;2.97;;;21.30;99.90;;;;;;5064552;28;20129;-25
2022/06/11 11:00:50;;;;;;;14.40;3.22;;;20.90;99.90;;;;;;5055827;28;20080;-25
2022/06/11 11:03:49;;;;;;;17.88;3.58;;;21.00;99.90;;;;;;5068038;28;20070;-25
2022/06/11 11:06:34;;;;;;;17.10;4.00;;;21.10;99.90;;;;;;5056935;28;20056;-25
2022/06/11 11:09:12;;;;;;;10.80;2.65;;;21.20;91.50;;;;;;5060347;28;20036;-25
2022/06/11 11:11:50;;;;;;;13.48;2.83;;;21.60;1.00;;;;;;5075542;28;20067;-25
2022/06/11 11:14:28;;;;;;;10.85;2.80;;;22.00;1.00;;;;;;5060506;28;20067;-25
2022/06/11 11:16:59;;;;;;;11.60;2.60;;;22.00;4.40;;;;;;5073532;28;20123;-25
2022/06/11 11:19:28;;;;;;;10.57;2.55;;;22.40;1.00;;;;;;5070177;28;20131;-25
2022/06/11 11:22:11;;;;;;;10.95;2.95;;;22.60;1.00;;;;;;5057726;28;20057;-25
2022/06/11 11:24:46;;;;;;;16.20;3.03;;;22.60;1.00;;;;;;5058776;28;20495;-25
2022/06/11 11:27:28;;;;;;;15.70;2.70;;;22.40;1.00;;;;;;5066635;28;20045;-25
2022/06/11 11:30:10;;;;;;;12.88;2.90;;;22.60;1.00;;;;;;5061937;28;20045;-25
2022/06/11 11:32:36;;;;;;;13.05;2.78;;;22.20;1.00;;;;;;5063282;28;20092;-25
2022/06/11 11:35:27;;;;;;;11.43;2.33;;;22.20;1.00;;;;;;5040967;28;20128;-25
2022/06/11 11:38:12;;;;;;;12.20;3.08;;;22.40;1.00;;;;;;5070968;28;20044;-25
2022/06/11 11:40:59;;;;;;;15.65;2.95;;;22.60;1.00;;;;;;5057488;28;20053;-25
2022/06/11 11:43:52;;;;;;;12.75;2.72;;;22.90;1.00;;;;;;5054131;28;20049;-25
2022/06/11 11:46:25;;;;;;;12.40;2.63;;;23.00;1.00;;;;;;5056715;28;20128;-25
2022/06/11 11:48:57;;;;;;;10.75;2.35;;;23.00;1.00;;;;;;5061499;28;20551;-25
2022/06/11 11:51:33;;;;;;;11.30;2.67;;;22.70;1.00;;;;;;5060294;28;20052;-25
2022/06/11 11:54:03;;;;;;;13.52;3.13;;;22.70;1.00;;;;;;5070370;28;20067;-25
2022/06/11 11:56:40;;;;;;;7.80;2.38;;;22.60;1.00;;;;;;5053420;28;20063;-25
2022/06/11 11:59:19;;;;;;;10.00;2.40;;;22.40;1.00;;;;;;5053975;28;20036;-25
2022/06/11 12:01:47;;;;;;;10.38;2.45;;;22.40;1.00;;;;;;5062955;28;20059;-25
2022/06/11 12:04:20;;;;;;;8.48;2.42;;;22.20;1.00;;;;;;5072295;28;20052;-26
2022/06/11 12:06:54;;;;;;;10.00;2.65;;;21.60;1.00;;;;;;5052476;28;20049;-25
2022/06/11 12:09:39;;;;;;;6.90;2.15;;;21.60;1.00;;;;;;5053400;28;20049;-24
2022/06/11 12:12:27;;;;;;;12.10;2.50;;;21.70;1.00;;;;;;5053599;28;20137;-25
2022/06/11 12:15:01;;;;;;;8.27;2.00;;;22.00;1.00;;;;;;5056844;28;20107;-25
2022/06/11 12:17:34;;;;;;;9.85;2.17;;;22.10;1.00;;;;;;5068711;28;20053;-25
2022/06/11 12:20:10;;;;;;;6.93;1.75;;;22.30;1.00;;;;;;5071289;28;20595;-25
2022/06/11 12:22:46;;;;;;;11.73;2.10;;;22.10;1.00;;;;;;5072362;28;20387;-25
2022/06/11 12:25:40;;;;;;;8.77;1.92;;;21.90;1.00;;;;;;5072583;28;20048;-25
2022/06/11 12:28:12;;;;;;;9.48;2.17;;;21.60;1.00;;;;;;5063208;28;20084;-25
2022/06/11 12:30:49;;;;;;;8.85;1.98;;;21.50;1.00;;;;;;5053643;28;20041;-25
2022/06/11 12:33:18;;;;;;;8.77;1.85;;;21.70;1.00;;;;;;5073450;28;20037;-25
2022/06/11 12:36:11;;;;;;;11.10;2.40;;;21.90;1.00;;;;;;5055739;28;20119;-25
2022/06/11 12:39:10;;;;;;;12.27;1.90;;;22.20;1.00;;;;;;5052953;28;20045;-25
2022/06/11 12:41:51;;;;;;;7.80;1.63;;;21.90;1.00;;;;;;5053342;28;20049;-25
2022/06/11 12:44:57;;;;;;;14.00;2.40;;;22.20;1.00;;;;;;5059281;28;20028;-25
2022/06/11 12:47:52;;;;;;;11.48;2.53;;;22.30;1.00;;;;;;5063106;28;20040;-25
2022/06/11 12:50:33;;;;;;;21.42;3.50;;;21.90;1.00;;;;;;5073604;28;20041;-25
2022/06/11 12:53:24;;;;;;;12.98;2.42;;;22.10;1.00;;;;;;5072250;28;20037;-25
2022/06/11 12:56:25;;;;;;;12.90;2.17;;;22.10;1.00;;;;;;5059106;28;20057;-25
2022/06/11 12:59:03;;;;;;;16.50;3.20;;;21.90;1.00;;;;;;5057559;28;20106;-25
2022/06/11 13:01:51;;;;;;;12.32;2.70;;;22.10;31.60;;;;;;5058494;28;20049;-25
2022/06/11 13:04:39;;;;;;;11.73;3.30;;;22.10;53.60;;;;;;5073489;28;20091;-25
2022/06/11 13:07:29;;;;;;;49.47;5.97;;;22.10;39.60;;;;;;5060759;28;20045;-25
2022/06/11 13:09:58;;;;;;;46.75;4.55;;;22.00;1.00;;;;;;5056860;28;20076;-25
2022/06/11 13:12:39;;;;;;;9.98;2.33;;;21.90;79.20;;;;;;5056737;28;20049;-25
2022/06/11 13:15:29;;;;;;;13.82;2.42;;;21.80;1.00;;;;;;5076230;28;20048;-25
2022/06/11 13:18:28;;;;;;;8.75;2.53;;;21.40;8.50;;;;;;5065996;28;20417;-25